Time;durP1;ratioP1;P1;durP2;ratioP2;P2;SDS_P1;SDS_P2;PMS_P1;PMS_P2;Temp;Humidity;BMP_temperature;BMP_pressure;BME280_temperature;BME280_humidity;BME280_pressure;Samples;Min_cycle;Max_cycle;Signal;HPM_P1;HPM_P2
2022/01/06 00:00:10;;;;;;;11.70;4.60;;;4.80;99.90;;;;;;4976429;28;20853;-68
2022/01/06 00:02:37;;;;;;;10.43;4.57;;;4.80;99.90;;;;;;4979737;28;20461;-68
2022/01/06 00:05:05;;;;;;;8.40;3.60;;;4.80;99.90;;;;;;4978928;28;20462;-68
2022/01/06 00:07:32;;;;;;;8.53;3.40;;;4.80;99.90;;;;;;4979155;28;20497;-68
2022/01/06 00:09:59;;;;;;;10.90;4.40;;;4.80;99.90;;;;;;4980318;28;20443;-69
2022/01/06 00:12:33;;;;;;;6.90;3.53;;;4.70;99.90;;;;;;4983786;28;20529;-68
2022/01/06 00:15:07;;;;;;;11.20;4.40;;;4.70;99.90;;;;;;4983274;28;20447;-68
2022/01/06 00:17:43;;;;;;;7.10;4.20;;;4.70;99.90;;;;;;4982726;28;20835;-69
2022/01/06 00:25:39;;;;;;;5.87;3.73;;;4.70;99.90;;;;;;4984433;28;20531;-68
2022/01/06 00:28:06;;;;;;;11.63;4.53;;;4.70;99.90;;;;;;4978741;28;20475;-67
2022/01/06 00:30:32;;;;;;;6.90;3.10;;;4.70;99.90;;;;;;4979201;28;20482;-68
2022/01/06 00:33:00;;;;;;;7.10;3.67;;;4.80;99.90;;;;;;4978787;28;20454;-68
2022/01/06 00:35:27;;;;;;;9.83;3.63;;;4.80;99.90;;;;;;4977951;28;20565;-67
2022/01/06 00:37:54;;;;;;;5.73;3.80;;;4.80;99.90;;;;;;4978557;28;20479;-68
2022/01/06 00:40:21;;;;;;;10.63;3.73;;;4.80;99.90;;;;;;4978442;28;20459;-70
2022/01/06 00:42:47;;;;;;;11.03;3.80;;;4.80;99.90;;;;;;4978857;28;20462;-71
2022/01/06 00:45:14;;;;;;;7.00;3.83;;;4.80;99.90;;;;;;4978513;28;20531;-70
2022/01/06 00:47:41;;;;;;;7.93;3.93;;;4.80;99.90;;;;;;4978010;28;21005;-70
2022/01/06 00:50:09;;;;;;;5.20;4.13;;;4.70;99.90;;;;;;4978246;28;20462;-71
2022/01/06 00:52:36;;;;;;;6.27;3.97;;;4.70;99.90;;;;;;4977979;28;20865;-71
2022/01/06 00:55:03;;;;;;;9.17;3.70;;;4.70;99.90;;;;;;4978315;28;20455;-70
2022/01/06 00:57:30;;;;;;;14.87;6.30;;;4.80;99.90;;;;;;4978233;28;20486;-70
2022/01/06 00:59:57;;;;;;;12.83;4.27;;;4.80;99.90;;;;;;4978028;28;20868;-69
2022/01/06 01:02:24;;;;;;;6.17;3.63;;;4.80;99.90;;;;;;4978179;28;20458;-71
2022/01/06 01:04:50;;;;;;;12.13;3.60;;;4.80;99.90;;;;;;4977914;28;20997;-71
2022/01/06 01:07:18;;;;;;;6.63;3.77;;;4.80;99.90;;;;;;4977547;28;20971;-70
2022/01/06 01:09:45;;;;;;;6.67;3.70;;;4.90;99.90;;;;;;4978070;28;20446;-73
2022/01/06 01:12:12;;;;;;;12.10;4.23;;;4.90;99.90;;;;;;4976865;28;21040;-70
2022/01/06 01:14:52;;;;;;;8.40;3.53;;;5.00;99.90;;;;;;4977833;28;20966;-70
2022/01/06 01:17:18;;;;;;;11.07;4.03;;;5.00;99.90;;;;;;4977621;28;20481;-71
2022/01/06 01:19:45;;;;;;;6.90;4.00;;;5.00;99.90;;;;;;4977820;28;20835;-71
2022/01/06 01:22:12;;;;;;;7.53;3.23;;;5.00;99.90;;;;;;4977955;28;20462;-70
2022/01/06 01:24:40;;;;;;;5.43;4.47;;;5.00;99.90;;;;;;4977810;28;20459;-70
2022/01/06 01:27:07;;;;;;;8.93;4.53;;;4.90;99.90;;;;;;4977592;28;20455;-70
2022/01/06 01:29:40;;;;;;;6.27;3.80;;;4.90;99.90;;;;;;4977101;28;20458;-70
2022/01/06 01:32:08;;;;;;;8.27;4.10;;;4.90;99.90;;;;;;4977233;28;20467;-70
2022/01/06 01:34:34;;;;;;;6.47;3.90;;;4.90;99.90;;;;;;4977654;28;20460;-71
2022/01/06 01:37:01;;;;;;;5.93;4.23;;;4.80;99.90;;;;;;4977361;28;20463;-71
2022/01/06 01:39:28;;;;;;;6.67;4.40;;;4.80;99.90;;;;;;4977205;28;20459;-71
2022/01/06 01:41:57;;;;;;;6.57;4.20;;;4.90;99.90;;;;;;4977406;28;20458;-70
2022/01/06 01:44:23;;;;;;;7.60;4.10;;;4.90;99.90;;;;;;4977483;28;20938;-71
2022/01/06 01:47:00;;;;;;;5.80;3.60;;;4.80;99.90;;;;;;4977304;28;20550;-71
2022/01/06 01:49:43;;;;;;;3.73;3.53;;;4.80;99.90;;;;;;4977601;28;20443;-70
2022/01/06 01:52:10;;;;;;;11.50;5.43;;;4.90;99.90;;;;;;4977341;28;20659;-71
2022/01/06 01:54:37;;;;;;;9.73;4.20;;;5.00;99.90;;;;;;4977411;28;20957;-71
2022/01/06 01:57:05;;;;;;;11.03;4.00;;;5.00;99.90;;;;;;4977884;28;20455;-71
2022/01/06 01:59:32;;;;;;;8.73;3.73;;;5.00;99.90;;;;;;4977075;28;20482;-71
2022/01/06 02:01:58;;;;;;;5.33;3.83;;;5.00;99.90;;;;;;4976608;28;20451;-71
2022/01/06 02:04:25;;;;;;;8.77;3.90;;;5.00;99.90;;;;;;4976837;28;20455;-71
2022/01/06 02:06:52;;;;;;;4.93;4.10;;;5.10;99.90;;;;;;4976393;28;20466;-71
2022/01/06 02:09:19;;;;;;;7.33;4.50;;;5.10;99.90;;;;;;4976347;28;20483;-71
2022/01/06 02:11:45;;;;;;;10.40;4.60;;;5.00;99.90;;;;;;4976412;28;20483;-70
2022/01/06 02:14:13;;;;;;;11.13;5.30;;;5.00;99.90;;;;;;4976373;28;20973;-71
2022/01/06 02:16:40;;;;;;;6.13;4.00;;;4.80;99.90;;;;;;4977356;28;20482;-71
2022/01/06 02:19:07;;;;;;;8.27;4.00;;;4.90;99.90;;;;;;4977329;28;20490;-70
2022/01/06 02:21:40;;;;;;;5.40;4.10;;;4.90;99.90;;;;;;4976827;28;20452;-71
2022/01/06 02:24:07;;;;;;;7.70;4.53;;;4.90;99.90;;;;;;4976608;28;20446;-68
2022/01/06 02:26:35;;;;;;;8.87;4.23;;;4.90;99.90;;;;;;4976344;28;20951;-68
2022/01/06 02:29:01;;;;;;;5.23;4.40;;;4.90;99.90;;;;;;4976546;28;20486;-72
2022/01/06 02:31:28;;;;;;;9.80;4.07;;;4.90;99.90;;;;;;4976723;28;20506;-72
2022/01/06 02:33:57;;;;;;;8.93;4.30;;;4.90;99.90;;;;;;4976125;28;20439;-72
2022/01/06 02:36:24;;;;;;;9.00;4.10;;;4.90;99.90;;;;;;4976098;28;20890;-72
2022/01/06 02:38:52;;;;;;;9.40;4.20;;;4.90;99.90;;;;;;4976020;28;20479;-72
2022/01/06 02:41:19;;;;;;;10.20;4.20;;;4.90;99.90;;;;;;4976024;28;20808;-72
2022/01/06 02:43:45;;;;;;;8.00;3.77;;;5.00;99.90;;;;;;4976857;28;20456;-72
2022/01/06 02:46:12;;;;;;;14.00;5.23;;;5.00;99.90;;;;;;4976835;28;20798;-72
2022/01/06 02:48:39;;;;;;;8.70;4.10;;;5.00;99.90;;;;;;4977930;28;20475;-72
2022/01/06 02:51:05;;;;;;;10.60;4.43;;;5.00;99.90;;;;;;4978469;28;20447;-72
2022/01/06 02:53:32;;;;;;;5.67;3.63;;;5.00;99.90;;;;;;4978112;28;20485;-73
2022/01/06 02:56:00;;;;;;;8.33;4.33;;;5.00;99.90;;;;;;4978058;28;20446;-72
2022/01/06 02:58:27;;;;;;;7.77;3.87;;;5.00;99.90;;;;;;4977421;28;20839;-71
2022/01/06 03:00:54;;;;;;;5.87;3.80;;;5.00;99.90;;;;;;4976599;28;20459;-71
2022/01/06 03:03:20;;;;;;;8.17;4.40;;;5.00;99.90;;;;;;4976633;28;20463;-71
2022/01/06 03:05:47;;;;;;;13.33;4.53;;;5.00;99.90;;;;;;4976338;28;20451;-71
2022/01/06 03:08:14;;;;;;;16.93;4.10;;;4.90;99.90;;;;;;4975743;28;20495;-71
2022/01/06 03:10:44;;;;;;;4.83;3.50;;;4.90;99.90;;;;;;4976008;28;20495;-68
2022/01/06 03:13:12;;;;;;;7.10;3.60;;;4.90;99.90;;;;;;4975297;28;20980;-68
2022/01/06 03:15:38;;;;;;;6.33;4.07;;;4.90;99.90;;;;;;4975530;28;20455;-68
2022/01/06 03:18:05;;;;;;;7.03;3.93;;;4.90;99.90;;;;;;4975799;28;20479;-68
2022/01/06 03:20:34;;;;;;;5.27;3.50;;;4.90;99.90;;;;;;4975690;28;20462;-68
2022/01/06 03:23:00;;;;;;;7.80;3.63;;;4.90;99.90;;;;;;4975827;28;20443;-69
2022/01/06 03:25:27;;;;;;;12.03;4.40;;;4.80;99.90;;;;;;4976301;28;20455;-68
2022/01/06 03:27:54;;;;;;;9.90;4.83;;;4.80;99.90;;;;;;4979565;28;20526;-68
2022/01/06 03:30:23;;;;;;;6.40;3.40;;;4.80;99.90;;;;;;4975848;28;20887;-68
2022/01/06 03:32:51;;;;;;;5.33;3.80;;;4.70;99.90;;;;;;4976031;28;20849;-68
2022/01/06 03:35:21;;;;;;;8.00;4.20;;;4.70;99.90;;;;;;4976856;28;20458;-67
2022/01/06 03:37:48;;;;;;;6.10;3.53;;;4.70;99.90;;;;;;4979244;28;20562;-67
2022/01/06 03:40:15;;;;;;;6.07;3.83;;;4.80;99.90;;;;;;4979194;28;20911;-68
2022/01/06 03:42:42;;;;;;;4.83;3.50;;;4.80;99.90;;;;;;4979309;28;20462;-67
2022/01/06 03:45:12;;;;;;;8.90;5.43;;;4.80;99.90;;;;;;4979386;28;20466;-68
2022/01/06 03:47:40;;;;;;;9.03;3.90;;;4.70;99.90;;;;;;4979520;28;20475;-67
2022/01/06 03:50:08;;;;;;;7.27;4.10;;;4.80;99.90;;;;;;4979182;28;21022;-68
2022/01/06 03:52:35;;;;;;;7.80;4.03;;;4.70;99.90;;;;;;4979549;28;20606;-68
2022/01/06 03:55:04;;;;;;;4.73;3.73;;;4.70;99.90;;;;;;4979360;28;20459;-67
2022/01/06 03:57:31;;;;;;;10.83;4.03;;;4.60;99.90;;;;;;4979514;28;20479;-68
2022/01/06 03:59:57;;;;;;;11.23;5.03;;;4.60;99.90;;;;;;4979395;28;20454;-68
2022/01/06 04:02:24;;;;;;;11.17;4.80;;;4.70;99.90;;;;;;4979403;28;20454;-67
2022/01/06 04:04:52;;;;;;;9.90;5.10;;;4.70;99.90;;;;;;4979446;28;20455;-67
2022/01/06 04:07:19;;;;;;;8.90;4.90;;;4.60;99.90;;;;;;4979150;28;21319;-67
2022/01/06 04:09:45;;;;;;;8.40;3.90;;;4.60;99.90;;;;;;4978693;28;20934;-67
2022/01/06 04:12:12;;;;;;;7.23;4.77;;;4.60;99.90;;;;;;4979438;28;20499;-68
2022/01/06 04:14:39;;;;;;;6.80;4.50;;;4.60;99.90;;;;;;4978943;28;20458;-67
2022/01/06 04:17:07;;;;;;;5.13;3.83;;;4.60;99.90;;;;;;4979016;28;20454;-67
2022/01/06 04:19:34;;;;;;;9.00;4.40;;;4.60;99.90;;;;;;4979016;28;20821;-68
2022/01/06 04:22:03;;;;;;;7.30;4.40;;;4.60;99.90;;;;;;4978424;28;20490;-68
2022/01/06 04:24:29;;;;;;;11.77;4.20;;;4.60;99.90;;;;;;4978388;28;20455;-68
2022/01/06 04:26:56;;;;;;;4.37;3.70;;;4.60;99.90;;;;;;4978964;28;20455;-68
2022/01/06 04:29:23;;;;;;;9.10;5.10;;;4.70;99.90;;;;;;4978633;28;20502;-68
2022/01/06 04:31:50;;;;;;;7.50;4.43;;;4.70;99.90;;;;;;4978628;28;20485;-68
2022/01/06 04:34:16;;;;;;;7.30;4.83;;;4.70;99.90;;;;;;4978844;28;20459;-67
2022/01/06 04:36:49;;;;;;;10.97;4.80;;;4.70;99.90;;;;;;4978969;28;20458;-68
2022/01/06 04:39:17;;;;;;;5.87;4.40;;;4.70;99.90;;;;;;4978629;28;20478;-68
2022/01/06 04:41:44;;;;;;;8.63;4.60;;;4.70;99.90;;;;;;4978629;28;20458;-68
2022/01/06 04:44:11;;;;;;;12.10;4.60;;;4.70;99.90;;;;;;4978381;28;20455;-68
2022/01/06 04:46:38;;;;;;;9.43;4.23;;;4.70;99.90;;;;;;4977435;28;20463;-68
2022/01/06 04:49:05;;;;;;;10.30;4.70;;;4.70;99.90;;;;;;4978252;28;20479;-68
2022/01/06 04:51:31;;;;;;;8.37;4.37;;;4.70;99.90;;;;;;4978587;28;20455;-68
2022/01/06 04:53:58;;;;;;;7.00;5.03;;;4.70;99.90;;;;;;4978497;28;20459;-67
2022/01/06 04:56:27;;;;;;;13.60;3.93;;;4.70;99.90;;;;;;4980639;28;20451;-68
2022/01/06 04:58:53;;;;;;;8.00;4.60;;;4.70;99.90;;;;;;4980183;28;20474;-67
2022/01/06 05:01:20;;;;;;;9.73;4.43;;;4.70;99.90;;;;;;4978449;28;20454;-67
2022/01/06 05:03:47;;;;;;;13.60;4.67;;;4.70;99.90;;;;;;4977784;28;20965;-68
2022/01/06 05:06:14;;;;;;;12.13;4.60;;;4.70;99.90;;;;;;4978636;28;20463;-68
2022/01/06 05:08:40;;;;;;;6.50;4.07;;;4.70;99.90;;;;;;4977860;28;20512;-68
2022/01/06 05:11:07;;;;;;;12.23;4.50;;;4.70;99.90;;;;;;4978067;28;20466;-68
2022/01/06 05:13:35;;;;;;;7.47;4.40;;;4.70;99.90;;;;;;4977796;28;20486;-68
2022/01/06 05:16:02;;;;;;;6.73;4.10;;;4.70;99.90;;;;;;4977270;28;20455;-66
2022/01/06 05:18:28;;;;;;;5.77;4.13;;;4.60;99.90;;;;;;4977742;28;20498;-67
2022/01/06 05:20:55;;;;;;;11.57;5.00;;;4.60;99.90;;;;;;4977960;28;20458;-68
2022/01/06 05:23:22;;;;;;;10.43;4.43;;;4.60;99.90;;;;;;4977866;28;20459;-67
2022/01/06 05:25:48;;;;;;;8.10;4.87;;;4.50;99.90;;;;;;4977753;28;20455;-67
2022/01/06 05:28:15;;;;;;;11.07;4.73;;;4.50;99.90;;;;;;4977874;28;20475;-67
2022/01/06 05:30:43;;;;;;;7.17;4.97;;;4.50;99.90;;;;;;4977323;28;20848;-68
2022/01/06 05:33:10;;;;;;;7.30;4.37;;;4.50;99.90;;;;;;4977515;28;20482;-67
2022/01/06 05:35:37;;;;;;;7.97;4.70;;;4.50;99.90;;;;;;4978259;28;20554;-67
2022/01/06 05:38:03;;;;;;;12.97;4.50;;;4.60;99.90;;;;;;4977327;28;20482;-67
2022/01/06 05:40:30;;;;;;;7.60;4.10;;;4.60;99.90;;;;;;4977626;28;20454;-68
2022/01/06 05:42:57;;;;;;;12.67;4.77;;;4.60;99.90;;;;;;4977339;28;20451;-67
2022/01/06 05:45:24;;;;;;;10.00;4.57;;;4.70;99.90;;;;;;4977651;28;20454;-68
2022/01/06 05:47:53;;;;;;;7.87;4.80;;;4.70;99.90;;;;;;4979963;28;20476;-67
2022/01/06 05:50:20;;;;;;;10.50;4.40;;;4.70;99.90;;;;;;4981205;28;20459;-67
2022/01/06 05:52:47;;;;;;;6.43;4.53;;;4.70;99.90;;;;;;4980408;28;20529;-67
2022/01/06 05:55:14;;;;;;;10.03;4.90;;;4.70;99.90;;;;;;4979395;28;20455;-67
2022/01/06 05:57:41;;;;;;;10.03;4.40;;;4.70;99.90;;;;;;4976650;28;20974;-68
2022/01/06 06:00:10;;;;;;;7.13;4.60;;;4.70;99.90;;;;;;4977151;28;20465;-68
2022/01/06 06:02:37;;;;;;;10.50;4.97;;;4.70;99.90;;;;;;4977134;28;20447;-67
2022/01/06 06:05:05;;;;;;;8.83;4.60;;;4.80;99.90;;;;;;4976223;28;20800;-67
2022/01/06 06:07:32;;;;;;;12.50;4.73;;;4.80;99.90;;;;;;4976091;28;20486;-68
2022/01/06 06:09:59;;;;;;;11.43;4.53;;;4.80;99.90;;;;;;4976487;28;20458;-67
2022/01/06 06:12:25;;;;;;;8.97;4.40;;;4.80;99.90;;;;;;4976388;28;20835;-68
2022/01/06 06:14:52;;;;;;;7.57;4.50;;;4.70;99.90;;;;;;4976780;28;20463;-67
2022/01/06 06:17:19;;;;;;;9.17;4.67;;;4.80;99.90;;;;;;4976301;28;20951;-67
2022/01/06 06:19:46;;;;;;;8.40;3.90;;;4.80;99.90;;;;;;4976299;28;20455;-67
2022/01/06 06:22:14;;;;;;;11.53;4.40;;;4.80;99.90;;;;;;4976144;28;20460;-67
2022/01/06 06:24:40;;;;;;;7.00;4.13;;;4.80;99.90;;;;;;4976637;28;20455;-67
2022/01/06 06:27:07;;;;;;;6.47;3.57;;;4.70;99.90;;;;;;4978861;28;20455;-68
2022/01/06 06:29:34;;;;;;;8.77;4.90;;;4.80;99.90;;;;;;4978006;28;20455;-67
2022/01/06 06:32:01;;;;;;;8.50;4.43;;;4.70;99.90;;;;;;4976000;28;20974;-67
2022/01/06 06:34:27;;;;;;;6.40;3.97;;;4.80;99.90;;;;;;4975844;28;20999;-67
2022/01/06 06:36:54;;;;;;;9.57;5.03;;;4.70;99.90;;;;;;4976239;28;20459;-68
2022/01/06 06:39:22;;;;;;;7.30;4.90;;;4.70;99.90;;;;;;4976378;28;20490;-67
2022/01/06 06:41:49;;;;;;;9.57;4.63;;;4.70;99.90;;;;;;4976196;28;20861;-67
2022/01/06 06:44:15;;;;;;;9.73;5.20;;;4.60;99.90;;;;;;4976212;28;20514;-67
2022/01/06 06:46:42;;;;;;;9.73;6.10;;;4.60;99.90;;;;;;4976039;28;20459;-67
2022/01/06 06:49:09;;;;;;;8.23;4.73;;;4.60;99.90;;;;;;4975567;28;20479;-67
2022/01/06 06:51:36;;;;;;;9.57;5.30;;;4.50;99.90;;;;;;4976172;28;20467;-67
2022/01/06 06:54:03;;;;;;;10.93;5.20;;;4.60;99.90;;;;;;4976193;28;20538;-68
2022/01/06 06:56:31;;;;;;;6.77;4.70;;;4.50;99.90;;;;;;4976001;28;20828;-67
2022/01/06 06:58:58;;;;;;;8.00;5.67;;;4.50;99.90;;;;;;4976095;28;20834;-67
2022/01/06 07:01:25;;;;;;;7.70;4.47;;;4.50;99.90;;;;;;4976115;28;20466;-67
2022/01/06 07:03:52;;;;;;;8.00;5.03;;;4.50;99.90;;;;;;4976349;28;20451;-67
2022/01/06 07:06:18;;;;;;;11.80;5.70;;;4.40;99.90;;;;;;4975606;28;20970;-67
2022/01/06 07:08:45;;;;;;;7.80;5.10;;;4.40;99.90;;;;;;4976301;28;20843;-68
2022/01/06 07:11:12;;;;;;;8.30;4.90;;;4.30;99.90;;;;;;4976338;28;20455;-67
2022/01/06 07:13:40;;;;;;;9.77;5.27;;;4.30;99.90;;;;;;4975830;28;20486;-67
2022/01/06 07:16:06;;;;;;;6.97;5.53;;;4.30;99.90;;;;;;4975720;28;20462;-67
2022/01/06 07:18:33;;;;;;;13.10;6.33;;;4.20;99.90;;;;;;4975279;28;20488;-67
2022/01/06 07:21:00;;;;;;;8.27;6.00;;;4.20;99.90;;;;;;4975517;28;20474;-67
2022/01/06 07:23:27;;;;;;;8.20;5.50;;;4.10;99.90;;;;;;4975863;28;20505;-67
2022/01/06 07:25:54;;;;;;;7.97;5.60;;;4.10;99.90;;;;;;4975957;28;20459;-67
2022/01/06 07:28:20;;;;;;;9.93;5.50;;;4.00;99.90;;;;;;4975419;28;20475;-67
2022/01/06 07:30:48;;;;;;;8.63;6.00;;;4.00;99.90;;;;;;4975645;28;20843;-67
2022/01/06 07:33:15;;;;;;;8.43;5.87;;;4.00;99.90;;;;;;4975523;28;20897;-68
2022/01/06 07:35:42;;;;;;;9.50;4.90;;;3.90;99.90;;;;;;4975318;28;20466;-69
2022/01/06 07:38:08;;;;;;;11.50;6.23;;;4.00;99.90;;;;;;4975520;28;20475;-69
2022/01/06 07:40:35;;;;;;;9.73;5.70;;;4.00;99.90;;;;;;4975384;28;20458;-69
2022/01/06 07:43:02;;;;;;;9.23;6.20;;;4.00;99.90;;;;;;4974981;28;20939;-68
2022/01/06 07:45:29;;;;;;;11.50;6.13;;;4.00;99.90;;;;;;4975266;28;20462;-69
2022/01/06 07:47:58;;;;;;;10.77;5.77;;;4.00;99.90;;;;;;4974585;28;20931;-68
2022/01/06 07:50:28;;;;;;;15.63;9.03;;;4.10;99.90;;;;;;4975230;28;20915;-67
2022/01/06 07:52:56;;;;;;;10.33;5.93;;;4.40;99.90;;;;;;4974991;28;20475;-67
2022/01/06 07:55:23;;;;;;;11.70;6.47;;;4.90;99.90;;;;;;4975531;28;20443;-69
2022/01/06 07:57:50;;;;;;;8.17;5.80;;;5.20;99.90;;;;;;4977635;28;20994;-68
2022/01/06 08:00:18;;;;;;;8.43;5.50;;;5.80;99.90;;;;;;4976564;28;20478;-69
2022/01/06 08:02:45;;;;;;;10.50;5.20;;;6.30;99.90;;;;;;4975211;28;20491;-69
2022/01/06 08:05:15;;;;;;;7.20;5.17;;;6.90;99.90;;;;;;4974783;28;20942;-67
2022/01/06 08:07:42;;;;;;;13.10;5.50;;;7.70;99.90;;;;;;4974695;28;20962;-69
2022/01/06 08:10:10;;;;;;;6.10;4.53;;;8.40;99.90;;;;;;4975378;28;20458;-68
2022/01/06 08:12:37;;;;;;;5.77;4.50;;;9.30;99.90;;;;;;4974798;28;20961;-67
2022/01/06 08:15:05;;;;;;;12.00;5.10;;;10.10;99.90;;;;;;4974764;28;20954;-66
2022/01/06 08:17:31;;;;;;;8.10;5.63;;;10.80;99.90;;;;;;4974561;28;21006;-67
2022/01/06 08:19:58;;;;;;;10.17;4.47;;;11.00;99.90;;;;;;4974866;28;20459;-67
2022/01/06 08:22:26;;;;;;;11.50;5.30;;;10.80;99.90;;;;;;4977548;28;20459;-67
2022/01/06 08:24:53;;;;;;;8.17;4.80;;;11.10;99.90;;;;;;4978666;28;20451;-67
2022/01/06 08:27:20;;;;;;;8.90;5.37;;;11.80;99.90;;;;;;4978567;28;20444;-67
2022/01/06 08:29:47;;;;;;;8.50;4.33;;;12.40;99.90;;;;;;4978481;28;20520;-67
2022/01/06 08:32:14;;;;;;;10.53;5.27;;;12.90;99.90;;;;;;4978862;28;20460;-67
2022/01/06 08:34:40;;;;;;;6.77;4.83;;;13.00;99.90;;;;;;4978802;28;20485;-67
2022/01/06 08:37:07;;;;;;;7.73;4.70;;;13.20;99.90;;;;;;4978458;28;20458;-67
2022/01/06 08:39:36;;;;;;;12.23;5.43;;;13.00;99.90;;;;;;4978492;28;20443;-68
2022/01/06 08:42:03;;;;;;;8.47;4.93;;;13.10;99.90;;;;;;4978131;28;20455;-68
2022/01/06 08:44:30;;;;;;;13.57;5.40;;;12.50;99.90;;;;;;4978375;28;20468;-68
2022/01/06 08:46:58;;;;;;;12.60;4.37;;;12.90;99.90;;;;;;4978466;28;20884;-68
2022/01/06 08:49:25;;;;;;;9.40;5.93;;;13.20;99.90;;;;;;4978520;28;20998;-67
2022/01/06 08:51:52;;;;;;;4.80;4.30;;;13.70;99.90;;;;;;4979350;28;20460;-68
2022/01/06 08:54:18;;;;;;;10.10;5.20;;;14.40;99.30;;;;;;4977983;28;20479;-69
2022/01/06 08:56:46;;;;;;;7.60;4.67;;;14.40;98.50;;;;;;4977940;28;20460;-70
2022/01/06 08:59:13;;;;;;;7.80;5.03;;;14.50;97.20;;;;;;4978039;28;20478;-70
2022/01/06 09:01:40;;;;;;;7.93;4.90;;;15.10;96.70;;;;;;4977672;28;20456;-69
2022/01/06 09:04:07;;;;;;;5.77;4.10;;;15.40;96.00;;;;;;4978129;28;20459;-70
2022/01/06 09:06:33;;;;;;;8.37;4.43;;;15.80;94.80;;;;;;4978109;28;20451;-70
2022/01/06 09:09:00;;;;;;;7.40;4.40;;;15.20;93.80;;;;;;4977489;28;20492;-69
2022/01/06 09:11:27;;;;;;;9.27;4.73;;;15.80;94.50;;;;;;4981489;28;20464;-69
2022/01/06 09:13:55;;;;;;;6.60;4.90;;;15.70;92.50;;;;;;4990876;28;21016;-70
2022/01/06 09:16:22;;;;;;;4.40;4.00;;;15.30;92.80;;;;;;4990352;28;20459;-70
2022/01/06 09:18:48;;;;;;;8.53;4.13;;;14.30;93.80;;;;;;4987766;28;20486;-70
2022/01/06 09:21:16;;;;;;;7.40;4.77;;;13.50;95.00;;;;;;4987533;28;20463;-70
2022/01/06 09:23:43;;;;;;;15.10;4.97;;;12.50;96.90;;;;;;4978594;28;20451;-70
2022/01/06 09:26:10;;;;;;;10.60;5.03;;;11.70;99.00;;;;;;4978241;28;20469;-69
2022/01/06 09:28:37;;;;;;;9.80;5.30;;;11.00;99.90;;;;;;4979583;28;20484;-69
2022/01/06 09:31:05;;;;;;;7.20;5.07;;;10.30;99.90;;;;;;4979948;28;20456;-73
2022/01/06 09:33:31;;;;;;;7.20;4.80;;;10.00;99.90;;;;;;4976402;28;20829;-73
2022/01/06 09:35:58;;;;;;;9.30;4.90;;;9.60;99.90;;;;;;4977687;28;20569;-73
2022/01/06 09:38:25;;;;;;;10.40;4.70;;;9.50;99.90;;;;;;4977407;28;20479;-73
2022/01/06 09:40:52;;;;;;;12.23;5.63;;;9.40;99.90;;;;;;4977398;28;20467;-72
2022/01/06 09:43:25;;;;;;;9.87;4.13;;;8.80;99.90;;;;;;4977341;28;20538;-71
2022/01/06 09:45:52;;;;;;;9.83;4.60;;;8.60;99.90;;;;;;4977094;28;20812;-71
2022/01/06 09:48:21;;;;;;;12.20;4.93;;;8.40;99.90;;;;;;4977049;28;20482;-70
2022/01/06 09:50:48;;;;;;;9.90;4.73;;;8.00;99.90;;;;;;4977385;28;20554;-71
2022/01/06 09:53:15;;;;;;;6.40;4.20;;;7.90;99.90;;;;;;4977783;28;20458;-71
2022/01/06 09:55:42;;;;;;;8.63;4.27;;;7.50;99.90;;;;;;4977422;28;20466;-71
2022/01/06 09:58:09;;;;;;;10.63;4.30;;;7.40;99.90;;;;;;4977926;28;20475;-72
2022/01/06 10:00:37;;;;;;;8.60;5.03;;;7.30;99.90;;;;;;4977356;28;20481;-72
2022/01/06 10:03:06;;;;;;;8.40;4.00;;;7.30;99.90;;;;;;4977447;28;20802;-71
2022/01/06 10:05:43;;;;;;;13.30;5.40;;;7.30;99.90;;;;;;4977612;28;20451;-70
2022/01/06 10:08:10;;;;;;;8.00;4.07;;;7.30;99.90;;;;;;4977224;28;20490;-70
2022/01/06 10:10:37;;;;;;;13.17;4.30;;;7.50;99.90;;;;;;4977699;28;20462;-71
2022/01/06 10:13:07;;;;;;;6.03;3.97;;;7.50;99.90;;;;;;4978135;28;20466;-71
2022/01/06 10:15:35;;;;;;;7.50;4.50;;;7.60;99.90;;;;;;4978531;28;20467;-72
2022/01/06 10:18:11;;;;;;;9.83;3.97;;;7.80;99.90;;;;;;4978086;28;20483;-73
2022/01/06 10:20:39;;;;;;;7.33;4.40;;;7.90;99.90;;;;;;4977458;28;20450;-72
2022/01/06 10:23:11;;;;;;;9.80;4.10;;;7.90;99.90;;;;;;4977256;28;20451;-71
2022/01/06 10:25:44;;;;;;;5.77;3.30;;;7.80;99.90;;;;;;4976143;28;20907;-70
2022/01/06 10:28:15;;;;;;;7.13;4.00;;;7.90;99.90;;;;;;4976571;28;20506;-70
2022/01/06 10:30:47;;;;;;;5.83;3.90;;;7.80;99.90;;;;;;4976269;28;20455;-71
2022/01/06 10:33:16;;;;;;;8.07;4.30;;;7.60;99.90;;;;;;4975957;28;20471;-70
2022/01/06 10:35:44;;;;;;;11.03;4.03;;;7.40;99.90;;;;;;4976543;28;20839;-70
2022/01/06 10:38:11;;;;;;;8.13;3.50;;;7.30;99.90;;;;;;4976531;28;20482;-70
2022/01/06 10:40:38;;;;;;;7.33;3.47;;;7.90;99.90;;;;;;4976079;28;20459;-70
2022/01/06 10:43:06;;;;;;;5.97;2.73;;;8.80;99.90;;;;;;4975788;28;20901;-70
2022/01/06 10:45:34;;;;;;;12.67;3.80;;;9.90;99.90;;;;;;4977166;28;20451;-70
2022/01/06 10:48:03;;;;;;;6.60;3.00;;;10.40;99.90;;;;;;4976236;28;20475;-70
2022/01/06 10:50:31;;;;;;;5.83;3.93;;;10.80;99.90;;;;;;4976561;28;20464;-70
2022/01/06 10:53:02;;;;;;;7.80;3.47;;;11.10;99.90;;;;;;4976528;28;20475;-70
2022/01/06 10:55:30;;;;;;;8.73;3.23;;;10.80;99.90;;;;;;4976177;28;20474;-70
2022/01/06 10:57:58;;;;;;;7.47;3.57;;;10.60;99.90;;;;;;4977045;28;20486;-70
2022/01/06 11:00:28;;;;;;;8.93;3.40;;;10.10;99.90;;;;;;4977627;28;20460;-70
2022/01/06 11:03:09;;;;;;;9.40;3.50;;;9.80;99.90;;;;;;4976938;28;20964;-70
2022/01/06 11:05:36;;;;;;;9.80;3.90;;;9.50;99.90;;;;;;4975972;28;20838;-70
2022/01/06 11:08:06;;;;;;;11.07;4.00;;;8.90;99.90;;;;;;4975759;28;20487;-70
2022/01/06 11:10:36;;;;;;;5.47;2.90;;;8.70;99.90;;;;;;4975917;28;20462;-70
2022/01/06 11:13:03;;;;;;;6.10;2.60;;;8.50;99.90;;;;;;4976170;28;20450;-70
2022/01/06 11:15:30;;;;;;;6.17;3.00;;;8.40;99.90;;;;;;4976013;28;20487;-69
2022/01/06 11:18:00;;;;;;;11.70;5.07;;;7.90;99.90;;;;;;4976197;28;20487;-67
2022/01/06 11:20:28;;;;;;;5.20;3.13;;;8.30;99.90;;;;;;4975896;28;20462;-69
2022/01/06 11:22:59;;;;;;;6.93;3.00;;;8.60;99.90;;;;;;4976016;28;20458;-69
2022/01/06 11:25:34;;;;;;;5.13;2.80;;;8.80;99.90;;;;;;4975938;28;20435;-71
2022/01/06 11:28:06;;;;;;;9.03;2.80;;;9.00;99.90;;;;;;4976505;28;20481;-71
2022/01/06 11:30:42;;;;;;;5.43;2.70;;;9.20;99.90;;;;;;4975631;28;20442;-71
2022/01/06 11:33:09;;;;;;;8.50;3.00;;;9.30;99.90;;;;;;4975617;28;20921;-71
2022/01/06 11:35:51;;;;;;;10.73;2.73;;;9.20;99.90;;;;;;4975440;28;20469;-71
2022/01/06 11:38:20;;;;;;;6.50;2.17;;;9.10;99.90;;;;;;4976464;28;20511;-71
2022/01/06 11:40:50;;;;;;;8.47;3.53;;;9.20;99.90;;;;;;4976141;28;20546;-70
2022/01/06 11:43:17;;;;;;;9.87;2.40;;;9.30;99.90;;;;;;4975638;28;20443;-71
2022/01/06 11:45:45;;;;;;;6.57;2.50;;;9.30;99.90;;;;;;4975444;28;20485;-71
2022/01/06 11:48:14;;;;;;;8.13;2.03;;;9.30;99.90;;;;;;4975280;28;20490;-71
2022/01/06 11:50:42;;;;;;;7.93;2.50;;;9.30;99.90;;;;;;4975329;28;20460;-71
2022/01/06 11:53:09;;;;;;;11.03;4.37;;;8.90;99.90;;;;;;4975071;28;20915;-71
2022/01/06 11:55:38;;;;;;;9.40;3.23;;;8.80;99.90;;;;;;4974691;28;20478;-71
2022/01/06 11:58:11;;;;;;;7.03;2.80;;;8.70;99.90;;;;;;4978803;28;20845;-71
2022/01/06 12:00:42;;;;;;;7.53;3.60;;;8.60;99.90;;;;;;4979240;28;20451;-71
2022/01/06 12:03:10;;;;;;;5.50;2.50;;;8.30;99.90;;;;;;4978662;28;20898;-71
2022/01/06 12:05:44;;;;;;;9.70;2.20;;;8.30;99.90;;;;;;4978311;28;20935;-70
2022/01/06 12:08:12;;;;;;;13.27;2.93;;;7.90;99.90;;;;;;4978302;28;20490;-70
2022/01/06 12:10:40;;;;;;;4.07;2.47;;;7.80;99.90;;;;;;4978618;28;20465;-70
2022/01/06 12:13:07;;;;;;;8.30;2.60;;;7.80;99.90;;;;;;4978678;28;20459;-70
2022/01/06 12:15:46;;;;;;;8.17;2.37;;;7.60;99.90;;;;;;4978373;28;20474;-70
2022/01/06 12:18:17;;;;;;;5.67;2.50;;;7.50;99.90;;;;;;4979291;28;20474;-68
2022/01/06 12:20:46;;;;;;;13.73;2.77;;;7.70;99.90;;;;;;4978368;28;20443;-68
2022/01/06 12:23:13;;;;;;;6.93;2.70;;;7.90;99.90;;;;;;4978238;28;20459;-68
2022/01/06 12:25:40;;;;;;;13.70;3.20;;;8.10;99.90;;;;;;4978376;28;20455;-70
2022/01/06 12:28:10;;;;;;;10.23;3.23;;;8.30;99.90;;;;;;4978747;28;20478;-70
2022/01/06 12:30:38;;;;;;;7.90;2.63;;;8.40;99.90;;;;;;4979184;28;20455;-70
2022/01/06 12:33:07;;;;;;;4.50;2.87;;;8.30;99.90;;;;;;4980349;28;20583;-70
2022/01/06 12:35:43;;;;;;;4.70;2.63;;;8.40;99.90;;;;;;4978118;28;20561;-70
2022/01/06 12:38:11;;;;;;;10.43;2.63;;;8.50;99.90;;;;;;4978194;28;20474;-70
2022/01/06 12:40:40;;;;;;;10.47;2.80;;;8.50;99.90;;;;;;4978045;28;20957;-70
2022/01/06 12:43:18;;;;;;;11.80;2.50;;;8.50;99.90;;;;;;4978523;28;20454;-71
2022/01/06 12:46:00;;;;;;;5.00;2.27;;;8.40;99.90;;;;;;4978051;28;20584;-71
2022/01/06 12:48:30;;;;;;;6.70;3.80;;;8.40;99.90;;;;;;4978558;28;20482;-71
2022/01/06 12:50:57;;;;;;;8.70;2.87;;;8.40;99.90;;;;;;4978310;28;20455;-70
2022/01/06 12:53:25;;;;;;;7.97;2.50;;;8.50;99.90;;;;;;4978118;28;20458;-70
2022/01/06 12:55:53;;;;;;;8.33;2.67;;;8.40;99.90;;;;;;4977794;28;20990;-70
2022/01/06 12:58:29;;;;;;;6.33;3.10;;;8.50;99.90;;;;;;4977997;28;20475;-70
2022/01/06 13:00:58;;;;;;;3.80;1.90;;;8.50;99.90;;;;;;4977726;28;20459;-70